createdAt,value
2023-04-21T00:01:32.989Z,9.43
2023-04-21T00:04:01.393Z,9.45
2023-04-21T00:06:31.479Z,9.45
2023-04-21T00:08:58.991Z,9.42
2023-04-21T00:11:26.472Z,9.39
2023-04-21T00:13:54.019Z,9.42
2023-04-21T00:16:21.527Z,9.38
2023-04-21T00:18:49.367Z,9.39
2023-04-21T00:21:17.814Z,9.39
2023-04-21T00:23:47.349Z,9.34
2023-04-21T00:26:14.906Z,9.39
2023-04-21T00:28:44.407Z,9.46
2023-04-21T00:31:11.944Z,9.47
2023-04-21T00:33:39.459Z,9.46
2023-04-21T00:36:07.109Z,9.37
2023-04-21T00:38:34.637Z,9.37
2023-04-21T00:41:02.185Z,9.36
2023-04-21T00:43:31.354Z,9.40
2023-04-21T00:45:58.927Z,9.43
2023-04-21T00:48:26.488Z,9.43
2023-04-21T00:50:54.143Z,9.44
2023-04-21T00:53:22.912Z,9.45
2023-04-21T00:55:51.687Z,9.42
2023-04-21T00:58:19.203Z,9.42
2023-04-21T01:00:46.736Z,9.42
2023-04-21T01:03:14.470Z,9.48
2023-04-21T01:05:42.799Z,9.52
2023-04-21T01:08:13.315Z,9.47
2023-04-21T01:10:40.790Z,9.44
2023-04-21T01:13:08.227Z,9.40
2023-04-21T01:15:35.682Z,9.36
2023-04-21T01:18:03.486Z,9.36
2023-04-21T01:20:31.226Z,9.40
2023-04-21T01:22:58.752Z,9.37
2023-04-21T01:25:28.416Z,9.34
2023-04-21T01:27:56.887Z,9.24
2023-04-21T01:30:24.855Z,9.27
2023-04-21T01:32:52.875Z,9.27
2023-04-21T01:35:20.595Z,9.35
2023-04-21T01:37:48.566Z,9.40
2023-04-21T01:40:16.074Z,9.44
2023-04-21T01:42:45.522Z,9.34
2023-04-21T01:45:14.035Z,9.15
2023-04-21T01:47:41.736Z,9.04
2023-04-21T01:50:10.136Z,8.94
2023-04-21T01:52:38.295Z,8.88
2023-04-21T01:55:06.319Z,8.84
2023-04-21T01:57:34.689Z,8.83
2023-04-21T02:00:04.059Z,8.82
2023-04-21T02:02:43.854Z,8.73
2023-04-21T02:05:13.770Z,8.72
2023-04-21T02:07:42.933Z,8.72
2023-04-21T02:10:11.203Z,8.77
2023-04-21T02:12:39.220Z,8.80
2023-04-21T02:15:07.517Z,8.80
2023-04-21T02:17:36.659Z,8.82
2023-04-21T02:20:04.603Z,8.79
2023-04-21T02:22:32.464Z,8.84
2023-04-21T02:24:59.893Z,8.74
2023-04-21T02:27:27.488Z,8.75
2023-04-21T02:29:55.258Z,8.75
2023-04-21T02:32:25.890Z,8.75
2023-04-21T02:34:54.215Z,8.76
2023-04-21T02:37:21.835Z,8.75
2023-04-21T02:39:49.349Z,8.74
2023-04-21T02:42:16.922Z,8.69
2023-04-21T02:44:44.568Z,8.66
2023-04-21T02:47:12.061Z,8.59
2023-04-21T02:49:42.941Z,8.61
2023-04-21T02:52:10.684Z,8.62
2023-04-21T02:54:38.152Z,8.63
2023-04-21T02:57:05.678Z,8.67
2023-04-21T02:59:34.328Z,8.68
2023-04-21T03:02:01.961Z,8.66
2023-04-21T03:04:30.197Z,8.63
2023-04-21T03:06:58.530Z,8.69
2023-04-21T03:09:26.076Z,8.71
2023-04-21T03:11:54.014Z,8.73
2023-04-21T03:14:21.545Z,8.75
2023-04-21T03:16:49.122Z,8.75
2023-04-21T03:19:16.731Z,8.70
2023-04-21T03:21:45.209Z,8.70
2023-04-21T03:24:12.707Z,8.62
2023-04-21T03:26:43.206Z,8.63
2023-04-21T03:29:10.941Z,8.69
2023-04-21T03:31:38.563Z,8.64
2023-04-21T03:34:06.109Z,8.62
2023-04-21T03:36:33.964Z,8.61
2023-04-21T03:39:20.661Z,8.65
2023-04-21T03:41:50.106Z,8.58
2023-04-21T03:44:17.916Z,8.53
2023-04-21T03:46:45.397Z,8.58
2023-04-21T03:49:12.853Z,8.54
2023-04-21T03:51:40.374Z,8.52
2023-04-21T03:54:08.481Z,8.58
2023-04-21T03:56:37.104Z,8.58
2023-04-21T03:59:04.572Z,8.58
2023-04-21T04:01:34.753Z,8.60
2023-04-21T04:04:02.534Z,8.57
2023-04-21T04:06:30.769Z,8.60
2023-04-21T04:08:58.229Z,8.58
2023-04-21T04:11:25.779Z,8.59
2023-04-21T04:13:53.298Z,8.58
2023-04-21T04:16:20.801Z,8.55
2023-04-21T04:18:50.307Z,8.64
2023-04-21T04:21:17.918Z,8.61
2023-04-21T04:23:45.461Z,8.65
2023-04-21T04:26:12.868Z,8.63
2023-04-21T04:28:40.456Z,8.65
2023-04-21T04:31:08.013Z,8.67
2023-04-21T04:33:36.235Z,8.65
2023-04-21T04:36:04.198Z,8.64
2023-04-21T04:38:34.731Z,8.69
2023-04-21T04:41:02.495Z,8.67
2023-04-21T04:43:30.274Z,8.67
2023-04-21T04:45:57.691Z,8.66
2023-04-21T04:48:25.549Z,8.69
2023-04-21T04:50:53.107Z,8.72
2023-04-21T04:53:20.947Z,8.79
2023-04-21T04:55:48.447Z,8.69
2023-04-21T04:58:15.927Z,8.61
2023-04-21T05:00:43.428Z,8.60
2023-04-21T05:03:11.047Z,8.66
2023-04-21T05:05:38.618Z,8.65
2023-04-21T05:08:06.256Z,8.74
2023-04-21T05:10:33.800Z,8.80
2023-04-21T05:13:01.330Z,8.88
2023-04-21T05:15:29.078Z,8.93
2023-04-21T05:17:56.667Z,8.90
2023-04-21T05:20:24.430Z,8.83
2023-04-21T05:22:52.029Z,8.85
2023-04-21T05:25:19.503Z,8.91
2023-04-21T05:27:46.934Z,8.82
2023-04-21T05:30:14.461Z,8.84
2023-04-21T05:32:42.439Z,8.86
2023-04-21T05:35:09.976Z,8.91
2023-04-21T05:37:37.642Z,9.01
2023-04-21T05:40:05.554Z,9.03
2023-04-21T05:42:33.440Z,9.07
2023-04-21T05:45:01.057Z,9.21
2023-04-21T05:47:28.702Z,9.18
2023-04-21T05:49:56.185Z,9.15
2023-04-21T05:52:23.736Z,9.30
2023-04-21T05:54:51.194Z,9.44
2023-04-21T05:57:19.359Z,9.46
2023-04-21T05:59:46.920Z,9.42
2023-04-21T06:02:14.609Z,9.38
2023-04-21T06:04:42.562Z,9.32
2023-04-21T06:07:13.616Z,9.40
2023-04-21T06:09:41.448Z,9.52
2023-04-21T06:12:09.099Z,9.47
2023-04-21T06:14:36.762Z,9.68
2023-04-21T06:17:04.216Z,9.71
2023-04-21T06:19:37.414Z,9.76
2023-04-21T06:22:05.133Z,9.77
2023-04-21T06:24:33.630Z,9.91
2023-04-21T06:27:01.892Z,10.00
2023-04-21T06:29:29.560Z,9.96
2023-04-21T06:31:57.146Z,9.87
2023-04-21T06:34:24.783Z,9.93
2023-04-21T06:36:53.232Z,9.95
2023-04-21T06:39:20.825Z,10.04
2023-04-21T06:41:48.270Z,10.10
2023-04-21T06:44:15.792Z,10.13
2023-04-21T06:46:43.274Z,10.06
2023-04-21T06:49:11.156Z,10.17
2023-04-21T06:51:38.886Z,10.26
2023-04-21T06:54:06.365Z,10.25
2023-04-21T06:56:35.091Z,10.20
2023-04-21T06:59:02.615Z,10.12
2023-04-21T07:01:30.208Z,10.12
2023-04-21T07:03:57.878Z,10.19
2023-04-21T07:06:25.754Z,10.24
2023-04-21T07:08:53.336Z,10.32
2023-04-21T07:11:20.980Z,10.33
2023-04-21T07:13:48.470Z,10.34
2023-04-21T07:16:16.039Z,10.29
2023-04-21T07:18:43.751Z,10.44
2023-04-21T07:21:11.923Z,10.53
2023-04-21T07:23:39.792Z,10.60
2023-04-21T07:26:07.407Z,10.57
2023-04-21T07:28:35.020Z,10.68
2023-04-21T07:31:03.612Z,10.86
2023-04-21T07:33:32.202Z,11.01
2023-04-21T07:35:59.689Z,11.16
2023-04-21T07:38:27.292Z,11.14
2023-04-21T07:40:54.956Z,11.19
2023-04-21T07:43:22.567Z,11.26
2023-04-21T07:45:52.202Z,11.31
2023-04-21T07:48:20.069Z,11.49
2023-04-21T07:50:47.551Z,11.67
2023-04-21T07:53:15.167Z,11.61
2023-04-21T07:55:42.617Z,11.56
2023-04-21T07:58:10.537Z,11.48
2023-04-21T08:00:38.017Z,11.55
2023-04-21T08:03:05.638Z,11.62
2023-04-21T08:05:36.659Z,11.72
2023-04-21T08:08:07.470Z,11.60
2023-04-21T08:10:35.195Z,11.51
2023-04-21T08:13:06.249Z,11.46
2023-04-21T08:15:34.808Z,11.42
2023-04-21T08:18:02.560Z,11.44
2023-04-21T08:20:30.394Z,11.42
2023-04-21T08:22:58.400Z,11.43
2023-04-21T08:25:26.182Z,11.45
2023-04-21T08:27:53.752Z,11.45
2023-04-21T08:30:21.323Z,11.45
2023-04-21T08:32:48.894Z,11.56
2023-04-21T08:35:16.465Z,11.56
2023-04-21T08:37:44.091Z,11.46
2023-04-21T08:40:12.249Z,11.47
2023-04-21T08:42:40.017Z,11.43
2023-04-21T08:45:08.326Z,11.49
2023-04-21T08:47:40.335Z,11.53
2023-04-21T08:50:13.675Z,11.57
2023-04-21T08:52:41.286Z,11.50
2023-04-21T08:55:11.401Z,11.45
2023-04-21T08:57:38.989Z,11.46
2023-04-21T09:00:08.339Z,11.63
2023-04-21T09:03:01.689Z,11.44
2023-04-21T09:05:32.303Z,11.47
2023-04-21T09:08:18.522Z,11.58
2023-04-21T09:10:49.302Z,11.58
2023-04-21T09:13:18.684Z,11.67
2023-04-21T09:15:48.723Z,11.49
2023-04-21T09:18:22.253Z,11.52
2023-04-21T09:20:52.806Z,11.66
2023-04-21T09:23:21.632Z,11.66
2023-04-21T09:25:49.124Z,11.70
2023-04-21T09:28:16.623Z,11.55
2023-04-21T09:30:44.243Z,11.48
2023-04-21T09:33:27.897Z,11.55
2023-04-21T09:36:02.132Z,11.48
2023-04-21T09:38:30.134Z,11.50
2023-04-21T09:41:01.257Z,11.56
2023-04-21T09:43:28.822Z,11.61
2023-04-21T09:45:58.059Z,11.59
2023-04-21T09:48:30.961Z,11.64
2023-04-21T09:53:32.048Z,11.65
2023-04-21T09:56:01.052Z,11.58
2023-04-21T09:58:34.175Z,11.58
2023-04-21T10:01:03.324Z,11.48
2023-04-21T10:03:32.618Z,11.51
2023-04-21T10:06:00.883Z,11.44
2023-04-21T10:08:29.255Z,11.53
2023-04-21T10:10:57.865Z,11.60
2023-04-21T10:13:25.912Z,11.61
2023-04-21T10:16:21.448Z,11.62
2023-04-21T10:18:49.079Z,11.83
2023-04-21T10:21:21.344Z,11.94
2023-04-21T10:23:49.962Z,11.87
2023-04-21T10:26:25.636Z,11.85
2023-04-21T10:29:02.372Z,11.88
2023-04-21T10:31:36.176Z,11.84
2023-04-21T10:34:07.420Z,11.91
2023-04-21T10:36:43.124Z,11.92
2023-04-21T10:39:15.758Z,11.84
2023-04-21T10:41:44.325Z,11.88
2023-04-21T10:44:14.087Z,11.72
2023-04-21T10:46:46.971Z,11.61
2023-04-21T10:49:17.648Z,11.64
2023-04-21T10:52:04.407Z,11.64
2023-04-21T10:55:12.477Z,11.46
2023-04-21T10:57:44.367Z,11.59
2023-04-21T11:00:17.674Z,11.58
2023-04-21T11:02:53.872Z,11.61
2023-04-21T11:05:30.934Z,11.56
2023-04-21T11:08:07.366Z,11.58
2023-04-21T11:10:56.009Z,11.60
2023-04-21T11:13:26.652Z,11.71
2023-04-21T11:16:01.908Z,11.64
2023-04-21T11:18:48.214Z,11.45
2023-04-21T11:21:18.634Z,11.54
2023-04-21T11:23:57.046Z,11.59
2023-04-21T11:26:35.879Z,11.61
2023-04-21T11:29:08.241Z,11.56
2023-04-21T11:31:37.604Z,11.56
2023-04-21T11:34:06.918Z,11.40
2023-04-21T11:36:36.717Z,11.42
2023-04-21T11:39:12.207Z,11.39
2023-04-21T11:41:49.645Z,11.26
2023-04-21T11:44:42.067Z,11.22
2023-04-21T11:47:20.352Z,11.21
2023-04-21T11:49:54.609Z,11.27
2023-04-21T11:52:33.454Z,11.32
2023-04-21T11:55:06.502Z,11.24
2023-04-21T11:57:34.279Z,11.19
2023-04-21T12:00:03.882Z,11.23
2023-04-21T12:02:33.676Z,11.16
2023-04-21T12:05:03.473Z,11.10
2023-04-21T12:07:33.204Z,11.03
2023-04-21T12:10:03.054Z,10.95
2023-04-21T12:12:31.013Z,11.09
2023-04-21T12:15:03.382Z,11.19
2023-04-21T12:17:57.796Z,11.23
2023-04-21T12:20:28.564Z,11.30
2023-04-21T12:22:56.692Z,11.19
2023-04-21T12:25:25.231Z,11.12
2023-04-21T12:27:57.723Z,11.15
2023-04-21T12:30:25.694Z,11.12
2023-04-21T12:32:55.894Z,11.09
2023-04-21T12:35:23.515Z,11.06
2023-04-21T12:37:51.136Z,11.16
2023-04-21T12:40:18.671Z,11.29
2023-04-21T12:42:46.217Z,11.18
2023-04-21T12:45:13.808Z,11.02
2023-04-21T12:47:43.631Z,10.96
2023-04-21T12:50:14.274Z,11.03
2023-04-21T12:52:42.347Z,11.05
2023-04-21T12:55:10.165Z,11.10
2023-04-21T12:57:37.839Z,11.08
2023-04-21T13:00:06.322Z,11.16
2023-04-21T13:02:37.281Z,11.22
2023-04-21T13:05:05.126Z,11.03
2023-04-21T13:07:36.729Z,11.00
2023-04-21T13:10:06.787Z,10.99
2023-04-21T13:12:34.693Z,11.07
2023-04-21T13:15:02.389Z,11.10
2023-04-21T13:17:30.367Z,11.12
2023-04-21T13:19:57.972Z,11.14
2023-04-21T13:22:25.737Z,11.22
2023-04-21T13:24:53.243Z,11.18
2023-04-21T13:27:20.701Z,11.08
2023-04-21T13:29:49.328Z,11.07
2023-04-21T13:32:17.152Z,11.09
2023-04-21T13:34:44.804Z,11.12
2023-04-21T13:37:16.110Z,11.16
2023-04-21T13:39:43.915Z,11.16
2023-04-21T13:42:11.857Z,11.12
2023-04-21T13:44:39.433Z,11.12
2023-04-21T13:47:08.966Z,11.15
2023-04-21T13:49:36.900Z,11.28
2023-04-21T13:52:04.546Z,11.26
2023-04-21T13:54:32.073Z,11.37
2023-04-21T13:56:59.928Z,11.38
2023-04-21T13:59:27.933Z,11.43
2023-04-21T14:01:55.710Z,11.39
2023-04-21T14:04:23.710Z,11.38
2023-04-21T14:06:51.877Z,11.35
2023-04-21T14:09:19.466Z,11.31
2023-04-21T14:11:47.454Z,11.28
2023-04-21T14:14:18.932Z,11.17
2023-04-21T14:16:52.260Z,11.24
2023-04-21T14:19:19.840Z,11.32
2023-04-21T14:21:47.572Z,11.38
2023-04-21T14:24:15.148Z,11.40
2023-04-21T14:26:42.933Z,11.39
2023-04-21T14:29:10.533Z,11.40
2023-04-21T14:31:38.332Z,11.45
2023-04-21T14:34:06.007Z,11.51
2023-04-21T14:36:33.579Z,11.52
2023-04-21T14:39:01.175Z,11.59
2023-04-21T14:41:28.905Z,11.58
2023-04-21T14:43:57.877Z,11.59
2023-04-21T14:46:25.710Z,11.55
2023-04-21T14:48:53.934Z,11.52
2023-04-21T14:51:21.846Z,11.48
2023-04-21T14:53:49.321Z,11.41
2023-04-21T14:56:17.011Z,11.44
2023-04-21T14:58:44.473Z,11.35
2023-04-21T15:01:13.196Z,11.35
2023-04-21T15:03:41.045Z,11.29
2023-04-21T15:06:08.691Z,11.36
2023-04-21T15:08:36.322Z,11.40
2023-04-21T15:11:05.292Z,11.36
2023-04-21T15:13:33.369Z,11.33
2023-04-21T15:16:04.289Z,11.24
2023-04-21T15:18:32.503Z,11.22
2023-04-21T15:21:00.233Z,11.16
2023-04-21T15:23:29.188Z,11.08
2023-04-21T15:25:58.066Z,11.14
2023-04-21T15:28:26.156Z,11.12
2023-04-21T15:30:53.829Z,11.07
2023-04-21T15:33:21.522Z,11.10
2023-04-21T15:35:49.045Z,10.88
2023-04-21T15:38:17.244Z,10.82
2023-04-21T15:40:59.415Z,10.88
2023-04-21T15:43:28.056Z,10.78
2023-04-21T15:45:55.605Z,10.78
2023-04-21T15:48:23.345Z,10.80
2023-04-21T15:50:51.020Z,10.82
2023-04-21T15:53:20.140Z,10.78
2023-04-21T15:55:48.167Z,10.76
2023-04-21T15:58:15.851Z,10.68
2023-04-21T16:00:43.365Z,10.66
2023-04-21T16:03:11.091Z,10.62
2023-04-21T16:05:38.838Z,10.58
2023-04-21T16:08:06.517Z,10.60
2023-04-21T16:10:34.570Z,10.58
2023-04-21T16:13:02.230Z,10.62
2023-04-21T16:15:30.404Z,10.61
2023-04-21T16:17:58.198Z,10.60
2023-04-21T16:20:25.975Z,10.51
2023-04-21T16:22:53.519Z,10.51
2023-04-21T16:25:21.164Z,10.56
2023-04-21T16:27:48.971Z,10.59
2023-04-21T16:30:16.463Z,10.68
2023-04-21T16:32:44.092Z,10.65
2023-04-21T16:35:11.723Z,10.64
2023-04-21T16:37:42.664Z,10.65
2023-04-21T16:40:11.457Z,10.66
2023-04-21T16:42:39.220Z,10.54
2023-04-21T16:45:07.536Z,10.44
2023-04-21T16:47:41.209Z,10.51
2023-04-21T16:50:09.893Z,10.52
2023-04-21T16:52:37.564Z,10.60
2023-04-21T16:55:05.538Z,10.57
2023-04-21T16:57:34.173Z,10.50
2023-04-21T17:00:06.805Z,10.50
2023-04-21T17:02:35.192Z,10.59
2023-04-21T17:05:03.022Z,10.51
2023-04-21T17:07:34.310Z,10.45
2023-04-21T17:10:02.029Z,10.40
2023-04-21T17:12:29.806Z,10.52
2023-04-21T17:14:57.394Z,10.45
2023-04-21T17:17:25.037Z,10.45
2023-04-21T17:19:55.911Z,10.49
2023-04-21T17:22:23.436Z,10.53
2023-04-21T17:24:53.857Z,10.50
2023-04-21T17:27:22.135Z,10.49
2023-04-21T17:29:49.602Z,10.54
2023-04-21T17:32:17.262Z,10.45
2023-04-21T17:34:44.918Z,10.30
2023-04-21T17:37:12.460Z,10.27
2023-04-21T17:39:40.149Z,10.25
2023-04-21T17:42:07.624Z,10.29
2023-04-21T17:44:35.405Z,10.32
2023-04-21T17:47:08.264Z,10.27
2023-04-21T17:49:36.755Z,10.27
2023-04-21T17:52:05.565Z,10.28
2023-04-21T17:54:33.658Z,10.23
2023-04-21T17:57:01.990Z,10.09
2023-04-21T17:59:29.716Z,10.04
2023-04-21T18:01:59.094Z,10.00
2023-04-21T18:04:27.417Z,10.04
2023-04-21T18:06:55.005Z,10.09
2023-04-21T18:09:22.631Z,10.06
2023-04-21T18:11:50.180Z,10.02
2023-04-21T18:14:18.090Z,10.01
2023-04-21T18:16:45.600Z,9.99
2023-04-21T18:19:13.146Z,9.93
2023-04-21T18:21:40.848Z,9.94
2023-04-21T18:24:08.401Z,9.90
2023-04-21T18:26:36.159Z,9.83
2023-04-21T18:29:03.816Z,9.86
2023-04-21T18:31:32.681Z,9.84
2023-04-21T18:34:00.421Z,9.79
2023-04-21T18:36:30.120Z,9.83
2023-04-21T18:38:59.967Z,9.83
2023-04-21T18:41:27.731Z,9.85
2023-04-21T18:43:55.315Z,9.80
2023-04-21T18:46:22.854Z,9.80
2023-04-21T18:48:50.431Z,9.77
2023-04-21T18:51:17.996Z,9.71
2023-04-21T18:53:46.388Z,9.81
2023-04-21T18:56:13.864Z,9.76
2023-04-21T18:58:41.348Z,9.74
2023-04-21T19:01:09.111Z,9.73
2023-04-21T19:03:36.838Z,9.76
2023-04-21T19:06:04.501Z,9.78
2023-04-21T19:08:42.292Z,9.83
2023-04-21T19:11:13.766Z,9.76
2023-04-21T19:13:41.381Z,9.71
2023-04-21T19:16:11.461Z,9.60
2023-04-21T19:18:39.117Z,9.58
2023-04-21T19:21:07.199Z,9.61
2023-04-21T19:23:34.824Z,9.63
2023-04-21T19:26:05.168Z,9.51
2023-04-21T19:28:32.730Z,9.48
2023-04-21T19:31:00.261Z,9.48
2023-04-21T19:33:28.099Z,9.45
2023-04-21T19:35:56.847Z,9.42
2023-04-21T19:38:25.114Z,9.40
2023-04-21T19:40:52.808Z,9.41
2023-04-21T19:43:21.571Z,9.46
2023-04-21T19:45:49.742Z,9.48
2023-04-21T19:48:17.570Z,9.50
2023-04-21T19:50:45.170Z,9.49
2023-04-21T19:53:14.830Z,9.44
2023-04-21T19:55:42.617Z,9.39
2023-04-21T19:58:10.559Z,9.32
2023-04-21T20:00:38.330Z,9.42
2023-04-21T20:03:07.254Z,9.40
2023-04-21T20:05:35.188Z,9.32
2023-04-21T20:08:02.982Z,9.32
2023-04-21T20:10:30.860Z,9.31
2023-04-21T20:12:58.437Z,9.32
2023-04-21T20:15:27.038Z,9.30
2023-04-21T20:17:54.683Z,9.31
2023-04-21T20:20:22.300Z,9.26
2023-04-21T20:22:49.892Z,9.23
2023-04-21T20:25:17.668Z,9.24
2023-04-21T20:27:45.838Z,9.26
2023-04-21T20:30:13.521Z,9.24
2023-04-21T20:32:41.455Z,9.23
2023-04-21T20:35:09.240Z,9.25
2023-04-21T20:37:37.633Z,9.21
2023-04-21T20:40:08.537Z,9.22
2023-04-21T20:42:36.545Z,9.21
2023-04-21T20:45:06.278Z,9.21
2023-04-21T20:47:34.766Z,9.25
2023-04-21T20:50:02.853Z,9.27
2023-04-21T20:52:30.832Z,9.29
2023-04-21T20:54:58.365Z,9.21
2023-04-21T20:57:27.034Z,9.15
2023-04-21T20:59:54.715Z,9.14
2023-04-21T21:02:22.306Z,9.14
2023-04-21T21:04:50.132Z,9.14
2023-04-21T21:07:17.576Z,9.15
2023-04-21T21:09:45.231Z,9.17
2023-04-21T21:12:13.838Z,9.15
2023-04-21T21:14:41.535Z,9.11
2023-04-21T21:17:10.040Z,8.97
2023-04-21T21:19:41.064Z,8.98
2023-04-21T21:22:09.315Z,8.94
2023-04-21T21:24:36.916Z,8.92
2023-04-21T21:27:04.455Z,8.96
2023-04-21T21:29:31.976Z,8.91
2023-04-21T21:31:59.562Z,8.85
2023-04-21T21:34:27.160Z,8.84
2023-04-21T21:36:54.712Z,8.85
2023-04-21T21:39:22.253Z,8.86
2023-04-21T21:41:50.075Z,8.77
2023-04-21T21:44:17.584Z,8.70
2023-04-21T21:46:45.378Z,8.65
2023-04-21T21:49:12.923Z,8.75
2023-04-21T21:51:40.869Z,8.82
2023-04-21T21:54:08.984Z,8.73
2023-04-21T21:56:36.753Z,8.67
2023-04-21T21:59:04.279Z,8.60
2023-04-21T22:01:31.891Z,8.56
2023-04-21T22:03:59.696Z,8.49
2023-04-21T22:06:28.977Z,8.53
2023-04-21T22:08:56.543Z,8.49
2023-04-21T22:11:24.362Z,8.54
2023-04-21T22:13:52.873Z,8.47
2023-04-21T22:16:20.409Z,8.49
2023-04-21T22:18:48.535Z,8.52
2023-04-21T22:21:16.230Z,8.44
2023-04-21T22:23:43.666Z,8.41
2023-04-21T22:26:11.271Z,8.37
2023-04-21T22:28:38.847Z,8.37
2023-04-21T22:31:06.409Z,8.41
2023-04-21T22:33:34.069Z,8.40
2023-04-21T22:36:01.643Z,8.37
2023-04-21T22:38:29.575Z,8.36
2023-04-21T22:40:57.252Z,8.37
2023-04-21T22:43:24.864Z,8.32
2023-04-21T22:45:52.818Z,8.33
2023-04-21T22:48:20.580Z,8.32
2023-04-21T22:50:48.173Z,8.32
2023-04-21T22:53:15.679Z,8.28
2023-04-21T22:55:43.395Z,8.30
2023-04-21T22:58:11.775Z,8.26
2023-04-21T23:00:41.184Z,8.20
2023-04-21T23:03:08.943Z,8.22
2023-04-21T23:05:36.994Z,8.26
2023-04-21T23:08:04.688Z,8.18
2023-04-21T23:10:32.536Z,8.18
2023-04-21T23:13:02.717Z,8.18
2023-04-21T23:15:32.111Z,8.17
2023-04-21T23:17:59.782Z,8.21
2023-04-21T23:20:27.480Z,8.13
2023-04-21T23:22:55.088Z,8.11
2023-04-21T23:25:23.037Z,8.15
2023-04-21T23:27:50.603Z,8.10
2023-04-21T23:30:18.233Z,8.11
2023-04-21T23:32:45.772Z,8.12
2023-04-21T23:35:13.482Z,8.16
2023-04-21T23:37:41.171Z,8.16
2023-04-21T23:40:11.235Z,8.16
2023-04-21T23:42:40.737Z,8.17
2023-04-21T23:45:09.447Z,8.20
2023-04-21T23:47:37.349Z,8.16
2023-04-21T23:50:05.771Z,8.10
2023-04-21T23:52:34.195Z,8.09
2023-04-21T23:55:01.672Z,8.09
2023-04-21T23:57:29.298Z,8.20
2023-04-21T23:59:56.849Z,8.19
